Pagrindinis puslapis
METAR-TAF:

METAR-TAF

Oro uostai :

Red Dog Mine, Aliaska, Jungtinės Amerikos Valstijos

platuma: 68-01-56N, ilguma: 162-53-57W, Aukštis: 295 m

Dabartinis oras

Ataskaita buvo paskelbta 6 valandos ir 26 minutes, ne 00:59 UTC
Ramus vėjas
Temperatūra -22°C
Drėgmė 84%
Slėgis 1014 hPa
Matomumas: 24.1 km
Giedras dangus

METAR: PADG 280059Z 00000KT 15SM SKC M22/M24 A2993

Laikas: 22:25 (07:25 UTC)


TAF: trūkstamas

Orai ataskaitas ir orų prognozės (METAR, TAF).

turimą stotys yra geltonos ir raudonos taškus žemėlapyje.

Perkelti pele per norėdami pamatyti stoties vardą.

Tada spustelėkite, norėdami matyti oro stebėjimo ir prognozės.

Norėdami pakeisti žemėlapį: spustelėkite ant žalios mygtukų su juodo kryžiaus žemyn,; žalią mygtuką su brūkšneliu, jei norite nutolinti; arba žalių rodyklių gretimoms žemėlapius.


METAR-TAF: